HTIR

Details ICAO HTIR (IRI)
Name IRINGA
Region Tanzania
Timezone Africa/Dar_es_Salaam (UTC+3.0)
Plans Departing 1
Arriving 0
Stats Elevation 4,678 ft / 1,426 m (AMSL)
Location -7.668634° 35.752113°
Runways 1
Magnetic Variation 1.644° W
Sunrise 2017-12-13 03:15:42 UTC / 2017-12-13 06:15:42 Local
Sunset 2017-12-13 15:49:26 UTC / 2017-12-13 18:49:26 Local
Advertisement - Login to hide

Runways

ID Width Length Bearing (true) Bearing (mag) Surface Threshold Offset Overrun Length
02 98 ft / 30 m 5,462 ft / 1,665 m 13.15° 14.79° Asphalt 0 ft / 0 m 0 ft / 0 m
20 98 ft / 30 m 5,462 ft / 1,665 m 193.15° 194.79° Asphalt 0 ft / 0 m 0 ft / 0 m

Map

Weather


0- 5 10 15 20 25 30 35+ Temperature / ° C

Clouds and Precipitation
Forecast for 2017-12-14 00:00 UTC. Updated an hour ago

Ground ~20,000 ft ~40,000 ft Winds

METAR

HTIR 132000Z 00000KT 9999 SCT020 20/17 Q1020

TAF

Not found

Frequencies

Tower 118.10 MHz TWR
Warning: Do not use this data for real-world aviation or navigation. No guarantee of current accuracy is given.